AirNav   Pilot Hours Calculator
 
 551 users online  

0C0 Dacy Airport
Harvard, Illinois, USA

GOING TO HARVARD?


FAA INFORMATION EFFECTIVE 30 JANUARY 2020

Location

FAA Identifier: 0C0
Lat/Long: 42-24-08.9000N 088-37-56.6000W
42-24.148333N 088-37.943333W
42.4024722,-88.6323889
(estimated)
Elevation: 913.2 ft. / 278.3 m (surveyed)
Variation: 00W (1985)
From city: 1 mile SW of HARVARD, IL
Time zone: UTC -6 (UTC -5 during Daylight Saving Time)
Zip code: 60033

Airport Operations

Airport use: Open to the public
Activation date: 11/1945
Control tower: no
ARTCC: CHICAGO CENTER
FSS: KANKAKEE FLIGHT SERVICE STATION
NOTAMs facility: IKK (NOTAM-D service available)
Attendance: 0800-2200
Pattern altitude: 1513.2 ft. MSL
Wind indicator: lighted
Segmented circle: no
Lights: SS-SR

Airport Communications

CTAF: 122.9

Nearby radio navigation aids

VOR radial/distance  VOR name  Freq  Var
JVLr111/22.9JANESVILLE VOR/DME114.3003E
RFDr066/27.3ROCKFORD VOR/DME110.8001E
OBKr292/32.1NORTHBROOK VOR/DME113.0002W
DPAr336/33.2DUPAGE VOR/DME108.4002E

 
NDB name  Hdg/Dist  Freq  Var  ID
LAKE LAWN188/17.940402WLVV .-.. ...- ...-

Airport Services

Fuel available: 100LL
Parking: hangars and tiedowns
Airframe service: MAJOR
Powerplant service: MAJOR
Bottled oxygen: NONE
Bulk oxygen: NONE

Runway Information

Runway 9/27

Dimensions: 3589 x 105 ft. / 1094 x 32 m
Surface: turf, in fair condition
Runway edge markings: DSPLCD THLD MKD WITH WHITE TIRES.
RUNWAY 9  RUNWAY 27
Latitude: 42-24.028165N42-24.030960N
Longitude: 088-38.471987W088-37.674715W
Elevation: 898.8 ft.912.6 ft.
Traffic pattern: leftleft
Runway heading: 090 magnetic, 090 true270 magnetic, 270 true
Displaced threshold: 300 ft.no
Markings: nonenone
Runway end identifier lights: nono
Obstructions: 42 ft. tree, 676 ft. from runway, 117 ft. right of centerline, 16:1 slope to clear
APCH RATIO 23:1 TO DSPLCD THLD.
tree, 20:1 slope to clear

Runway 14/32

Dimensions: 2633 x 100 ft. / 803 x 30 m
Surface: turf, in fair condition
Runway edge markings: DSPLCD THLD MKD WITH WHITE TIRES.
RUNWAY 14  RUNWAY 32
Latitude: 42-24.431042N42-24.039162N
Longitude: 088-37.943762W088-37.693768W
Elevation: 911.7 ft.911.9 ft.
Traffic pattern: leftleft
Runway heading: 155 magnetic, 155 true335 magnetic, 335 true
Displaced threshold: 681 ft.no
Markings: nonenone
Runway end identifier lights: nono
Obstructions: 42 ft. tree, 542 ft. from runway, 25 ft. left of centerline, 13:1 slope to clear
SLOPE 24:1 TO DSPLCD THLD.
none

Runway 18/36

Dimensions: 2577 x 120 ft. / 785 x 37 m
Surface: turf, in fair condition
Runway edge lights: non-standard
RWY 18/36 NSTD LIRL; NSTD SPACING & NON-FRANGIBLE. RY 18/36 2,272' LIGHTED.
Runway edge markings: RY 18 DSPLCD THLD MKD WITH WHITE TIRES AND ORANGE & WHITE BARRELS.
RUNWAY 18  RUNWAY 36
Latitude: 42-24.438567N42-24.014260N
Longitude: 088-37.889175W088-37.888948W
Elevation: 913.2 ft.908.6 ft.
Traffic pattern: leftleft
Runway heading: 180 magnetic, 180 true000 magnetic, 360 true
Displaced threshold: 305 ft.no
Markings: nonenone
Runway end identifier lights: nono
Obstructions: 15 ft. road, 30 ft. from runway, 2:1 slope to clear
APCH RATIO 22:1 TO DSPLCD THLD.
none

Airport Ownership and Management from official FAA records

Ownership: Privately-owned
Owner: ELSIE DACY ESTATE
22211 AIRPORT RD, PO BOX 225
HARVARD, IL 60033
Phone 815-943-9876
Manager: DAVE DACY
22211 AIRPORT RD, PO BOX 225
HARVARD, IL 60033
Phone 815-943-9876

Airport Operational Statistics

Aircraft based on the field: 34
Single engine airplanes: 32
Multi engine airplanes: 2
    
Aircraft operations: avg 55/day *
50% transient general aviation
50% local general aviation
* for 12-month period ending 31 August 2019

Additional Remarks

FOR CD CTC CHICAGO ARTCC AT 630-906-8921.

Instrument Procedures

There are no published instrument procedures at 0C0.

Some nearby airports with instrument procedures:

C77 - Poplar Grove Airport (10 nm SW)
10C - Galt Field Airport (11 nm E)
44C - Beloit Airport (16 nm W)
C02 - Grand Geneva Resort Airport (17 nm NE)
3CK - Lake in the Hills Airport (18 nm SE)
 
Loc | Ops | Rwys | IFR | FBO | Links
Com | Nav | Svcs | Stats | Notes
Area around 0C0 (Dacy Airport)
 
Road maps at: MapQuest Bing Google
 
Aerial photo
WARNING: Photo may not be current or correct
Aerial photo of 0C0 (Dacy Airport)
Do you have a better or more recent aerial photo of Dacy Airport that you would like to share? If so, please send us your photo.

 
Sectional chart

 
Airport distance calculator
Flying to Dacy Airport? Find the distance to fly.

From to 0C0

Sunrise and sunset
Times for 26-Feb-2020
 Local
(UTC-6)
 Zulu
(UTC)
Morning civil twilight06:0712:07
Sunrise06:3612:36
Sunset17:3923:39
Evening civil twilight18:0800:08

Current date and time
Zulu (UTC)  26-Feb-2020 10:16:20
Local (UTC-6)  26-Feb-2020 04:16:20
 
METAR
KJVL 
21nm NW 
260955Z AUTO 01012G21KT 10SM OVC018 M02/M07 A3012 RMK AO2
KBUU 
22nm NE 
260935Z AUTO 36013G16KT 10SM OVC018 M03/M06 A3009 RMK AO2 T10271061
KRFD 
24nm SW 
260954Z 01017G24KT 10SM OVC019 M02/M07 A3011 RMK AO2 SLP205 T10221067
K57C 
26nm NE 
260955Z AUTO 35009G17KT 10SM OVC018 M04/M07 A3009 RMK AO2 T10361066
KDKB 
28nm S 
260955Z AUTO 36016G20KT 7SM -SN OVC014 M02/M04 A3006 RMK AO2 T10251039
KENW 
33nm E 
260953Z AUTO 36014G21KT 10SM OVC014 M01/M06 A3007 RMK AO2 SLP191 T10111056
KDPA 
34nm SE 
260952Z 01011KT 5SM -SN BR BKN015 BKN037 OVC045 M02/M03 A3004 RMK AO2 SLP180 P0000 T10171033
KUGN 
34nm E 
260955Z AUTO 02010G24KT 10SM OVC029 00/M06 A3004 RMK AO2 SNE26 SLP184 P0000 T00001056
K06C 
34nm SE 
260955Z AUTO 01007KT 5SM BKN010 OVC015 M01/M03 A3004 RMK AO2 T10121027
KRPJ 
37nm SW 
260955Z AUTO 36012G16KT 7SM OVC019 M02/M05 A3009 RMK AO2 T10251049
TAF
KRFD 
24nm SW 
260530Z 2606/2706 02015G23KT 6SM -SN SCT018 OVC040 FM260800 02014G21KT P6SM -SN OVC025 FM261000 01014G24KT P6SM OVC025 FM262200 34015G23KT P6SM BKN030 FM270100 33011KT P6SM BKN040
NOTAMs
Click for the latest NOTAMs
NOTAMs are issued by the DoD/FAA and will open in a separate window not controlled by AirNav.

 

 
 

FBO, Fuel Providers, and Aircraft Ground Support

  
 Business Name 
 
 Contact 
 
 Services / Description 
 
Fuel Prices
 
Comments
  
Dacy Airshows 815-943-9876
no information available

If you are affiliated with Dacy Airshows and would like to show here your services, contact info, web link, logo, and more, click here
100LL
AS $4.95 
 Updated 14-Feb-2020
 
   write
AS=Assisted/Self Service
Update Fuel Prices
 

Would you like to see your business listed on this page?

 If your business provides an interesting product or service to pilots, flight crews, aircraft, or users of the Dacy Airport, you should consider listing it here.  To start the listing process, click on the button below
 
Add a business
 

Other Pages about Dacy Airport

Update a link
 
Copyright © AirNav, LLC. All rights reserved. Privacy Policy  Contact